Drury, Missouri
Current Conditions -  °F | °C
As of 5:53 AM on Sunday 21 Dec 2014 (Local Time) from KUNO Reporting Station
Overcast Overcast  
Wind Chill: 33°   Ceiling: 2800
Heat Index: 38°   Visibility: 7mi
Dew Point: 34°   Wind: 6mph
Humidity: 86%   Direction: 140°SE
Pressure: 30.16"   Gusts: NA
Location:  36.93°N, 92.32°W
Report Text: KUNO 211153Z AUTO 14005KT 7SM OVC028 03/01 A3016 RMK AO2 SLP219 T00330011 10044 20033 58007 $
Loading
Personal Weather Stations






























Interactive Weather Map New forecast layout! Learn more

10-Day Weather Forecast

Advertisements
Track Severe Weather on mobile